Time;durP1;ratioP1;P1;durP2;ratioP2;P2;SDS_P1;SDS_P2;PMS_P1;PMS_P2;Temp;Humidity;BMP_temperature;BMP_pressure;BME280_temperature;BME280_humidity;BME280_pressure;Samples;Min_cycle;Max_cycle;Signal;HPM_P1;HPM_P2
2022/11/30 00:01:26;;;;;;;;;;;8.00;99.90;;;;;;5048725;28;19980;-60
2022/11/30 00:03:52;;;;;;;;;;;8.00;99.90;;;;;;5044457;28;19921;-58
2022/11/30 00:06:21;;;;;;;;;;;8.00;99.90;;;;;;5045073;28;19959;-57
2022/11/30 00:08:47;;;;;;;;;;;7.90;99.90;;;;;;5045938;28;20332;-58
2022/11/30 00:11:14;;;;;;;;;;;7.90;99.90;;;;;;5041900;28;19944;-58
2022/11/30 00:13:40;;;;;;;;;;;7.90;99.90;;;;;;5048520;28;20361;-60
2022/11/30 00:16:07;;;;;;;;;;;7.90;99.90;;;;;;5041440;28;19921;-58
2022/11/30 00:18:32;;;;;;;;;;;7.90;99.90;;;;;;5041062;28;20416;-58
2022/11/30 00:20:59;;;;;;;;;;;7.90;99.90;;;;;;5042940;28;19913;-58
2022/11/30 00:23:25;;;;;;;;;;;7.80;99.90;;;;;;5040327;28;19917;-59
2022/11/30 00:25:50;;;;;;;;;;;7.90;99.90;;;;;;5044713;28;20007;-59
2022/11/30 00:28:15;;;;;;;;;;;7.90;99.90;;;;;;5044694;28;20290;-60
2022/11/30 00:30:41;;;;;;;;;;;7.90;99.90;;;;;;5043627;28;19946;-57
2022/11/30 00:33:06;;;;;;;;;;;7.80;99.90;;;;;;5042284;28;20044;-58
2022/11/30 00:35:32;;;;;;;;;;;7.80;99.90;;;;;;5043081;28;19923;-59
2022/11/30 00:38:00;;;;;;;;;;;7.80;99.90;;;;;;5041606;28;19928;-58
2022/11/30 00:40:25;;;;;;;;;;;7.80;99.90;;;;;;5043633;28;19944;-59
2022/11/30 00:42:51;;;;;;;;;;;7.80;99.90;;;;;;5045188;28;20022;-57
2022/11/30 00:45:16;;;;;;;;;;;7.80;99.90;;;;;;5047078;28;19917;-60
2022/11/30 00:47:42;;;;;;;;;;;7.80;99.90;;;;;;5042413;28;20186;-60
2022/11/30 00:50:07;;;;;;;;;;;7.80;99.90;;;;;;5043308;28;19917;-59
2022/11/30 00:52:33;;;;;;;;;;;7.80;99.90;;;;;;5044197;28;19927;-60
2022/11/30 00:54:58;;;;;;;;;;;7.70;99.90;;;;;;5041557;28;19913;-58
2022/11/30 00:57:24;;;;;;;;;;;7.70;99.90;;;;;;5040092;28;19937;-57
2022/11/30 00:59:49;;;;;;;;;;;7.70;99.90;;;;;;5048998;28;19920;-59
2022/11/30 01:02:15;;;;;;;;;;;7.70;99.90;;;;;;5050818;28;19924;-56
2022/11/30 01:04:41;;;;;;;;;;;7.70;99.90;;;;;;5048070;28;19912;-56
2022/11/30 01:07:06;;;;;;;;;;;7.70;99.90;;;;;;5047631;28;19956;-56
2022/11/30 01:09:31;;;;;;;;;;;7.60;99.90;;;;;;5048647;28;19947;-57
2022/11/30 01:11:57;;;;;;;;;;;7.60;99.90;;;;;;5048617;28;19924;-59
2022/11/30 01:14:22;;;;;;;;;;;7.70;99.90;;;;;;5048811;28;19917;-59
2022/11/30 01:16:48;;;;;;;;;;;7.70;99.90;;;;;;5049141;28;20027;-57
2022/11/30 01:19:13;;;;;;;;;;;7.70;99.90;;;;;;5049902;28;19978;-59
2022/11/30 01:21:39;;;;;;;;;;;7.70;99.90;;;;;;5051425;28;19917;-58
2022/11/30 01:24:05;;;;;;;;;;;7.60;99.90;;;;;;5049341;28;19956;-58
2022/11/30 01:26:30;;;;;;;;;;;7.60;99.90;;;;;;5048592;28;20410;-58
2022/11/30 01:28:55;;;;;;;;;;;7.60;99.90;;;;;;5044702;28;19913;-58
2022/11/30 01:31:22;;;;;;;;;;;7.70;99.90;;;;;;5046956;28;19920;-58
2022/11/30 01:33:54;;;;;;;;;;;7.70;99.90;;;;;;5045344;28;19922;-58
2022/11/30 01:36:21;;;;;;;;;;;7.70;99.90;;;;;;5051352;28;20443;-54
2022/11/30 01:38:47;;;;;;;;;;;;;;;;;;5044396;28;19917;-56
2022/11/30 01:41:13;;;;;;;;;;;;;;;;;;5048834;28;19967;-59
2022/11/30 01:43:38;;;;;;;;;;;;;;;;;;5050161;28;19920;-59
2022/11/30 01:46:04;;;;;;;;;;;;;;;;;;5046438;28;19913;-60
2022/11/30 01:48:30;;;;;;;;;;;;;;;;;;5049152;28;20556;-60
2022/11/30 01:50:56;;;;;;;;;;;;;;;;;;5046776;28;20397;-59
2022/11/30 01:53:22;;;;;;;;;;;;;;;;;;5045739;28;19950;-58
2022/11/30 01:55:48;;;;;;;;;;;;;;;;;;5046354;28;20007;-59
2022/11/30 01:58:14;;;;;;;;;;;;;;;;;;5049405;28;19932;-57
2022/11/30 02:00:40;;;;;;;;;;;;;;;;;;5044300;28;19913;-59
2022/11/30 02:03:05;;;;;;;;;;;;;;;;;;5049137;28;20012;-59
2022/11/30 02:05:31;;;;;;;;;;;;;;;;;;5047587;28;19913;-59
2022/11/30 02:07:57;;;;;;;;;;;;;;;;;;5046327;28;19917;-60
2022/11/30 02:10:23;;;;;;;;;;;;;;;;;;5047642;28;20388;-59
2022/11/30 02:12:49;;;;;;;;;;;;;;;;;;5049039;28;19944;-59
2022/11/30 02:15:15;;;;;;;;;;;;;;;;;;5048067;28;19919;-58
2022/11/30 02:17:41;;;;;;;;;;;;;;;;;;5051108;28;19924;-59
2022/11/30 02:20:07;;;;;;;;;;;;;;;;;;5042618;28;19913;-61
2022/11/30 02:22:32;;;;;;;;;;;;;;;;;;5048581;28;19920;-59
2022/11/30 02:24:58;;;;;;;;;;;;;;;;;;5045184;28;19913;-59
2022/11/30 02:27:24;;;;;;;;;;;;;;;;;;5029288;28;19928;-59
2022/11/30 02:29:50;;;;;;;;;;;;;;;;;;5047500;28;19913;-59
2022/11/30 02:32:16;;;;;;;;;;;;;;;;;;5047199;28;19913;-58
2022/11/30 02:34:42;;;;;;;;;;;;;;;;;;5047942;28;19913;-60
2022/11/30 02:37:08;;;;;;;;;;;;;;;;;;5047678;28;19913;-60
2022/11/30 02:39:34;;;;;;;;;;;;;;;;;;5049418;28;19921;-60
2022/11/30 02:41:59;;;;;;;;;;;;;;;;;;5049604;28;19909;-59
2022/11/30 02:44:25;;;;;;;;;;;;;;;;;;5047868;28;20371;-59
2022/11/30 02:46:52;;;;;;;;;;;;;;;;;;5043705;28;19913;-60
2022/11/30 02:49:18;;;;;;;;;;;;;;;;;;5044582;28;19936;-59
2022/11/30 02:51:44;;;;;;;;;;;;;;;;;;5047246;28;20366;-57
2022/11/30 02:54:09;;;;;;;;;;;;;;;;;;5048371;28;19912;-56
2022/11/30 02:56:35;;;;;;;;;;;;;;;;;;5050079;28;19913;-57
2022/11/30 02:59:01;;;;;;;;;;;;;;;;;;5047949;28;19913;-58
2022/11/30 03:01:27;;;;;;;;;;;;;;;;;;5050413;28;20688;-61
2022/11/30 03:03:53;;;;;;;;;;;;;;;;;;5051580;28;20020;-59
2022/11/30 03:06:19;;;;;;;;;;;;;;;;;;5044837;28;19913;-59
2022/11/30 03:08:45;;;;;;;;;;;;;;;;;;5045514;28;20445;-58
2022/11/30 03:11:10;;;;;;;;;;;;;;;;;;5044135;28;19924;-57
2022/11/30 03:13:36;;;;;;;;;;;;;;;;;;5049407;28;19944;-54
2022/11/30 03:16:02;;;;;;;;;;;;;;;;;;5042673;28;19917;-58
2022/11/30 03:18:28;;;;;;;;;;;;;;;;;;5047491;28;20319;-57
2022/11/30 03:20:54;;;;;;;;;;;;;;;;;;5041521;28;19951;-60
2022/11/30 03:23:20;;;;;;;;;;;;;;;;;;5047297;28;20003;-57
2022/11/30 03:25:46;;;;;;;;;;;;;;;;;;5045713;28;20390;-59
2022/11/30 03:28:12;;;;;;;;;;;;;;;;;;5047956;28;19920;-57
2022/11/30 03:30:38;;;;;;;;;;;;;;;;;;5048808;28;19912;-58
2022/11/30 03:33:04;;;;;;;;;;;;;;;;;;5045332;28;19915;-60
2022/11/30 03:35:29;;;;;;;;;;;;;;;;;;5046491;28;20382;-60
2022/11/30 03:37:56;;;;;;;;;;;;;;;;;;5044094;28;20016;-60
2022/11/30 03:40:22;;;;;;;;;;;;;;;;;;5036600;28;20429;-60
2022/11/30 03:42:48;;;;;;;;;;;;;;;;;;5057923;22;20044;-58
2022/11/30 03:45:14;;;;;;;;;;;;;;;;;;5024153;28;20354;-60
2022/11/30 03:47:39;;;;;;;;;;;;;;;;;;5027179;28;19913;-58
2022/11/30 03:50:05;;;;;;;;;;;;;;;;;;5022313;28;20024;-61
2022/11/30 03:52:31;;;;;;;;;;;;;;;;;;5030562;28;19955;-60
2022/11/30 03:54:57;;;;;;;;;;;;;;;;;;5022546;28;19917;-61
2022/11/30 03:57:23;;;;;;;;;;;;;;;;;;5025478;28;20379;-59
2022/11/30 03:59:49;;;;;;;;;;;;;;;;;;5020546;28;19909;-61
2022/11/30 04:02:14;;;;;;;;;;;;;;;;;;5026826;28;20039;-60
2022/11/30 04:04:40;;;;;;;;;;;;;;;;;;5022816;28;19909;-56
2022/11/30 04:07:06;;;;;;;;;;;;;;;;;;5024144;28;20236;-60
2022/11/30 04:09:32;;;;;;;;;;;;;;;;;;5026055;28;19913;-60
2022/11/30 04:11:58;;;;;;;;;;;;;;;;;;5023003;28;19921;-62
2022/11/30 04:14:24;;;;;;;;;;;;;;;;;;5020671;28;20283;-60
2022/11/30 04:16:50;;;;;;;;;;;;;;;;;;5025252;28;19913;-61
2022/11/30 04:19:15;;;;;;;;;;;;;;;;;;5024887;28;20174;-60
2022/11/30 04:21:41;;;;;;;;;;;;;;;;;;5021333;28;20370;-61
2022/11/30 04:24:07;;;;;;;;;;;;;;;;;;5018369;28;19928;-60
2022/11/30 04:26:33;;;;;;;;;;;;;;;;;;5019726;28;19913;-61
2022/11/30 04:28:59;;;;;;;;;;;;;;;;;;5022337;28;19929;-59
2022/11/30 04:31:25;;;;;;;;;;;;;;;;;;5025225;28;20236;-59
2022/11/30 04:33:51;;;;;;;;;;;;;;;;;;5026007;28;19932;-59
2022/11/30 04:36:17;;;;;;;;;;;;;;;;;;5021702;28;19909;-59
2022/11/30 04:38:43;;;;;;;;;;;;;;;;;;5023898;28;19913;-59
2022/11/30 04:41:08;;;;;;;;;;;;;;;;;;5024809;28;20294;-60
2022/11/30 04:43:34;;;;;;;;;;;;;;;;;;5026271;28;19921;-59
2022/11/30 04:46:00;;;;;;;;;;;;;;;;;;5021343;28;19983;-59
2022/11/30 04:48:26;;;;;;;;;;;;;;;;;;5023468;28;19919;-57
2022/11/30 04:50:52;;;;;;;;;;;;;;;;;;5023920;28;19991;-60
2022/11/30 04:53:18;;;;;;;;;;;;;;;;;;5021618;28;20415;-61
2022/11/30 04:55:44;;;;;;;;;;;;;;;;;;5019389;28;19913;-59
2022/11/30 04:58:09;;;;;;;;;;;;;;;;;;5027254;28;20008;-60
2022/11/30 05:00:35;;;;;;;;;;;;;;;;;;5020855;28;20008;-61
2022/11/30 05:03:01;;;;;;;;;;;;;;;;;;5021878;28;19963;-62
2022/11/30 05:05:27;;;;;;;;;;;;;;;;;;5020977;28;19928;-60
2022/11/30 05:07:53;;;;;;;;;;;;;;;;;;5022085;28;19936;-60
2022/11/30 05:10:19;;;;;;;;;;;;;;;;;;5022201;28;19921;-60
2022/11/30 05:12:45;;;;;;;;;;;;;;;;;;5025236;28;19913;-61
2022/11/30 05:15:10;;;;;;;;;;;;;;;;;;5026215;28;19921;-61
2022/11/30 05:17:36;;;;;;;;;;;;;;;;;;5024161;28;19917;-61
2022/11/30 05:20:02;;;;;;;;;;;;;;;;;;5021522;28;20004;-62
2022/11/30 05:22:28;;;;;;;;;;;;;;;;;;5021339;28;19921;-61
2022/11/30 05:24:54;;;;;;;;;;;;;;;;;;5024342;28;19921;-61
2022/11/30 05:27:20;;;;;;;;;;;;;;;;;;5024711;28;19913;-57
2022/11/30 05:29:46;;;;;;;;;;;;;;;;;;5025641;28;19913;-56
2022/11/30 05:32:12;;;;;;;;;;;;;;;;;;5021377;28;19913;-59
2022/11/30 05:34:37;;;;;;;;;;;;;;;;;;5024468;28;19918;-60
2022/11/30 05:37:03;;;;;;;;;;;;;;;;;;5020642;28;19918;-59
2022/11/30 05:39:29;;;;;;;;;;;;;;;;;;5006336;28;20394;-57
2022/11/30 05:41:55;;;;;;;;;;;;;;;;;;5024929;28;19967;-60
2022/11/30 05:44:21;;;;;;;;;;;;;;;;;;5022734;28;19927;-59
2022/11/30 05:46:47;;;;;;;;;;;;;;;;;;5028012;28;19932;-59
2022/11/30 05:49:13;;;;;;;;;;;;;;;;;;5025543;28;19914;-59
2022/11/30 05:51:39;;;;;;;;;;;;;;;;;;5026381;28;20326;-57
2022/11/30 05:54:04;;;;;;;;;;;;;;;;;;5023815;28;19919;-59
2022/11/30 05:56:30;;;;;;;;;;;;;;;;;;5025903;28;19971;-60
2022/11/30 05:58:56;;;;;;;;;;;;;;;;;;5031517;28;19913;-61
2022/11/30 06:01:22;;;;;;;;;;;;;;;;;;5028098;28;19919;-60
2022/11/30 06:03:48;;;;;;;;;;;;;;;;;;5020158;28;20457;-61
2022/11/30 06:06:14;;;;;;;;;;;;;;;;;;5027592;28;19913;-58
2022/11/30 06:08:40;;;;;;;;;;;;;;;;;;5032089;28;20379;-58
2022/11/30 06:11:05;;;;;;;;;;;;;;;;;;5027250;28;19913;-62
2022/11/30 06:13:31;;;;;;;;;;;;;;;;;;5027556;28;20461;-61
2022/11/30 06:15:57;;;;;;;;;;;;;;;;;;5026210;28;19959;-60
2022/11/30 06:18:23;;;;;;;;;;;;;;;;;;5028170;28;19948;-60
2022/11/30 06:20:49;;;;;;;;;;;;;;;;;;5029060;28;19913;-60
2022/11/30 06:23:15;;;;;;;;;;;;;;;;;;5029433;28;19964;-60
2022/11/30 06:25:41;;;;;;;;;;;;;;;;;;5029412;28;20349;-62
2022/11/30 06:28:06;;;;;;;;;;;;;;;;;;5026078;28;20012;-60
2022/11/30 06:30:32;;;;;;;;;;;;;;;;;;5028072;28;19913;-62
2022/11/30 06:32:58;;;;;;;;;;;;;;;;;;5029666;28;19913;-60
2022/11/30 06:35:24;;;;;;;;;;;;;;;;;;5028974;28;19995;-61
2022/11/30 06:37:50;;;;;;;;;;;;;;;;;;5024231;28;20359;-61
2022/11/30 06:40:16;;;;;;;;;;;;;;;;;;5028049;28;19967;-58
2022/11/30 06:42:42;;;;;;;;;;;;;;;;;;5028383;28;19924;-60
2022/11/30 06:45:08;;;;;;;;;;;;;;;;;;5031127;28;19952;-59
2022/11/30 06:47:33;;;;;;;;;;;;;;;;;;5029101;28;19935;-60
2022/11/30 06:49:59;;;;;;;;;;;;;;;;;;5026610;28;19997;-58
2022/11/30 06:52:25;;;;;;;;;;;;;;;;;;5027772;28;19909;-59
2022/11/30 06:54:51;;;;;;;;;;;;;;;;;;5028296;28;20490;-57
2022/11/30 06:57:17;;;;;;;;;;;;;;;;;;5028244;28;19913;-58
2022/11/30 06:59:43;;;;;;;;;;;;;;;;;;5031717;28;20437;-61
2022/11/30 07:02:09;;;;;;;;;;;;;;;;;;5027321;28;19921;-59
2022/11/30 07:04:35;;;;;;;;;;;;;;;;;;5027640;28;19913;-57
2022/11/30 07:07:00;;;;;;;;;;;;;;;;;;5025943;28;19932;-61
2022/11/30 07:09:26;;;;;;;;;;;;;;;;;;5028742;28;19913;-58
2022/11/30 07:11:52;;;;;;;;;;;;;;;;;;5026626;28;19913;-58
2022/11/30 07:14:18;;;;;;;;;;;;;;;;;;5022036;28;20393;-59
2022/11/30 07:16:44;;;;;;;;;;;;;;;;;;5026089;28;19936;-59
2022/11/30 07:19:10;;;;;;;;;;;;;;;;;;5027143;28;19909;-60
2022/11/30 07:21:36;;;;;;;;;;;;;;;;;;5028979;28;19921;-61
2022/11/30 07:26:46;;;;;;;;;;;;;;;;;;5026707;28;19920;-61
2022/11/30 07:29:12;;;;;;;;;;;;;;;;;;5029636;28;19910;-62
2022/11/30 07:31:38;;;;;;;;;;;;;;;;;;5025498;28;19913;-62
2022/11/30 07:34:04;;;;;;;;;;;;;;;;;;5025502;28;19909;-62
2022/11/30 07:36:30;;;;;;;;;;;;;;;;;;5022197;28;20031;-62
2022/11/30 07:38:56;;;;;;;;;;;;;;;;;;5022251;28;20012;-61
2022/11/30 07:41:22;;;;;;;;;;;;;;;;;;5024180;28;20311;-63
2022/11/30 07:43:48;;;;;;;;;;;;;;;;;;5027614;28;19925;-61
2022/11/30 07:46:13;;;;;;;;;;;;;;;;;;5022409;28;19913;-63
2022/11/30 07:48:39;;;;;;;;;;;;;;;;;;5023518;28;19917;-63
2022/11/30 07:51:05;;;;;;;;;;;;;;;;;;5025584;28;19928;-63
2022/11/30 07:53:31;;;;;;;;;;;;;;;;;;5026173;28;19999;-63
2022/11/30 07:55:57;;;;;;;;;;;;;;;;;;5025942;28;19921;-62
2022/11/30 07:58:23;;;;;;;;;;;;;;;;;;5025062;28;19917;-63
2022/11/30 08:00:49;;;;;;;;;;;;;;;;;;5020281;28;19917;-63
2022/11/30 08:03:14;;;;;;;;;;;;;;;;;;5022160;28;20407;-63
2022/11/30 08:05:40;;;;;;;;;;;;;;;;;;5029157;28;19913;-63
2022/11/30 08:08:06;;;;;;;;;;;;;;;;;;5021996;28;20268;-63
2022/11/30 08:10:32;;;;;;;;;;;;;;;;;;5026054;28;19919;-62
2022/11/30 08:12:58;;;;;;;;;;;;;;;;;;5023517;28;19920;-62
2022/11/30 08:15:24;;;;;;;;;;;;;;;;;;5029675;28;19917;-61
2022/11/30 08:17:53;;;;;;;;;;;;;;;;;;5026904;28;19913;-62
2022/11/30 08:20:19;;;;;;;;;;;;;;;;;;5007816;28;20020;-60
2022/11/30 08:22:46;;;;;;;;;;;;;;;;;;5023425;28;19995;-62
2022/11/30 08:25:11;;;;;;;;;;;;;;;;;;5027868;28;20334;-63
2022/11/30 08:27:37;;;;;;;;;;;;;;;;;;5025487;28;19994;-62
2022/11/30 08:30:03;;;;;;;;;;;;;;;;;;5026017;28;20286;-62
2022/11/30 08:32:29;;;;;;;;;;;;;;;;;;5025117;28;19918;-63
2022/11/30 08:34:55;;;;;;;;;;;;;;;;;;5029044;28;19909;-64
2022/11/30 08:37:21;;;;;;;;;;;;;;;;;;5027756;28;19966;-62
2022/11/30 08:39:47;;;;;;;;;;;;;;;;;;5023851;28;20023;-62
2022/11/30 08:42:12;;;;;;;;;;;;;;;;;;5018284;28;20294;-62
2022/11/30 08:44:38;;;;;;;;;;;;;;;;;;5027406;28;20000;-62
2022/11/30 08:47:06;;;;;;;;;;;;;;;;;;5023904;28;20354;-62
2022/11/30 08:49:31;;;;;;;;;;;;;;;;;;5023734;28;19913;-62
2022/11/30 08:51:57;;;;;;;;;;;;;;;;;;5018679;28;19948;-62
2022/11/30 08:54:25;;;;;;;;;;;;;;;;;;5025924;28;19917;-63
2022/11/30 08:56:51;;;;;;;;;;;;;;;;;;5024018;28;20303;-62
2022/11/30 08:59:17;;;;;;;;;;;;;;;;;;5025840;28;20575;-62
2022/11/30 09:01:43;;;;;;;;;;;;;;;;;;5026548;28;19921;-63
2022/11/30 09:04:09;;;;;;;;;;;;;;;;;;5027908;28;20349;-62
2022/11/30 09:06:34;;;;;;;;;;;;;;;;;;5027725;28;19961;-62
2022/11/30 09:09:01;;;;;;;;;;;;;;;;;;5026022;28;19967;-62
2022/11/30 09:11:27;;;;;;;;;;;;;;;;;;5017955;28;19914;-62
2022/11/30 09:13:52;;;;;;;;;;;;;;;;;;5023094;28;19914;-63
2022/11/30 09:16:18;;;;;;;;;;;;;;;;;;5022942;28;20279;-62
2022/11/30 09:18:44;;;;;;;;;;;;;;;;;;5027878;28;19913;-62
2022/11/30 09:21:10;;;;;;;;;;;;;;;;;;5032259;28;19909;-62
2022/11/30 09:23:36;;;;;;;;;;;;;;;;;;5031122;28;19944;-62
2022/11/30 09:26:02;;;;;;;;;;;;;;;;;;5033261;28;19916;-63
2022/11/30 09:28:29;;;;;;;;;;;;;;;;;;5029643;28;20426;-62
2022/11/30 09:30:55;;;;;;;;;;;;;;;;;;5032231;28;20282;-63
2022/11/30 09:33:22;;;;;;;;;;;;;;;;;;5029186;28;19913;-62
2022/11/30 09:35:47;;;;;;;;;;;;;;;;;;5031711;28;19925;-63
2022/11/30 09:38:13;;;;;;;;;;;;;;;;;;5026140;28;19956;-62
2022/11/30 09:40:40;;;;;;;;;;;;;;;;;;5030739;28;19924;-62
2022/11/30 09:43:05;;;;;;;;;;;;;;;;;;5051888;22;20869;-63
2022/11/30 09:45:31;;;;;;;;;;;;;;;;;;5047969;28;19912;-62
2022/11/30 09:47:57;;;;;;;;;;;;;;;;;;5050821;28;20310;-63
2022/11/30 09:50:23;;;;;;;;;;;;;;;;;;5049073;28;19924;-62
2022/11/30 09:52:49;;;;;;;;;;;;;;;;;;5048827;28;19966;-63
2022/11/30 09:55:15;;;;;;;;;;;;;;;;;;5010250;28;19915;-63
2022/11/30 09:57:41;;;;;;;;;;;;;;;;;;5029122;28;19917;-63
2022/11/30 10:00:07;;;;;;;;;;;;;;;;;;5029283;28;20051;-63
2022/11/30 10:02:32;;;;;;;;;;;;;;;;;;5028909;28;19948;-63
2022/11/30 10:04:58;;;;;;;;;;;;;;;;;;5030941;28;19913;-63
2022/11/30 10:07:24;;;;;;;;;;;;;;;;;;5030676;28;19913;-64
2022/11/30 10:09:50;;;;;;;;;;;;;;;;;;5031745;28;19917;-63
2022/11/30 10:12:16;;;;;;;;;;;;;;;;;;5028107;28;20294;-61
2022/11/30 10:14:42;;;;;;;;;;;;;;;;;;5026090;28;19913;-63
2022/11/30 10:17:08;;;;;;;;;;;;;;;;;;5029854;28;20394;-63
2022/11/30 10:19:33;;;;;;;;;;;;;;;;;;5008982;28;19913;-63
2022/11/30 10:21:59;;;;;;;;;;;;;;;;;;5019633;28;20004;-63
2022/11/30 10:24:25;;;;;;;;;;;;;;;;;;5028903;28;19914;-63
2022/11/30 10:26:51;;;;;;;;;;;;;;;;;;5030540;28;19916;-63
2022/11/30 10:29:17;;;;;;;;;;;;;;;;;;5025709;28;19963;-64
2022/11/30 10:31:43;;;;;;;;;;;;;;;;;;5025089;28;19920;-62
2022/11/30 10:34:09;;;;;;;;;;;;;;;;;;5029058;28;19917;-65
2022/11/30 10:36:35;;;;;;;;;;;;;;;;;;5024116;28;19920;-63
2022/11/30 10:39:02;;;;;;;;;;;;;;;;;;5024454;28;19952;-63
2022/11/30 10:41:28;;;;;;;;;;;;;;;;;;5023597;28;20328;-61
2022/11/30 10:43:54;;;;;;;;;;;;;;;;;;5029158;28;19947;-63
2022/11/30 10:46:20;;;;;;;;;;;;;;;;;;5030837;28;20286;-63
2022/11/30 10:48:46;;;;;;;;;;;;;;;;;;5019744;28;19914;-64
2022/11/30 10:51:11;;;;;;;;;;;;;;;;;;5016905;28;19921;-63
2022/11/30 10:53:37;;;;;;;;;;;;;;;;;;5023018;28;19917;-64
2022/11/30 10:56:03;;;;;;;;;;;;;;;;;;5026635;28;19992;-63
2022/11/30 10:58:29;;;;;;;;;;;;;;;;;;5021055;28;19924;-63
2022/11/30 11:00:55;;;;;;;;;;;;;;;;;;5004434;28;19913;-63
2022/11/30 11:03:21;;;;;;;;;;;;;;;;;;5024166;28;20433;-63
2022/11/30 11:05:47;;;;;;;;;;;;;;;;;;5026894;28;19924;-64
2022/11/30 11:08:13;;;;;;;;;;;;;;;;;;5027646;28;19992;-63
2022/11/30 11:10:38;;;;;;;;;;;;;;;;;;5026280;28;19999;-63
2022/11/30 11:13:04;;;;;;;;;;;;;;;;;;5026081;28;19928;-62
2022/11/30 11:15:30;;;;;;;;;;;;;;;;;;5024925;28;20036;-63
2022/11/30 11:17:56;;;;;;;;;;;;;;;;;;5010160;28;19916;-63
2022/11/30 11:20:22;;;;;;;;;;;;;;;;;;5026865;28;19920;-63
2022/11/30 11:22:48;;;;;;;;;;;;;;;;;;5006610;28;19922;-63
2022/11/30 11:25:14;;;;;;;;;;;;;;;;;;5002982;28;20414;-63
2022/11/30 11:27:40;;;;;;;;;;;;;;;;;;5027403;28;19921;-61
2022/11/30 11:30:06;;;;;;;;;;;;;;;;;;5008475;28;20265;-61
2022/11/30 11:32:32;;;;;;;;;;;;;;;;;;5022513;28;20011;-63
2022/11/30 11:34:58;;;;;;;;;;;;;;;;;;5007630;28;19917;-65
2022/11/30 11:37:28;;;;;;;;;;;;;;;;;;5008654;28;19909;-62
2022/11/30 11:39:54;;;;;;;;;;;;;;;;;;5027864;28;19916;-63
2022/11/30 11:42:20;;;;;;;;;;;;;;;;;;5027029;28;19939;-63
2022/11/30 11:44:46;;;;;;;;;;;;;;;;;;5025919;28;19924;-64
2022/11/30 11:47:12;;;;;;;;;;;;;;;;;;5024341;28;20000;-65
2022/11/30 11:49:38;;;;;;;;;;;;;;;;;;5023812;28;19917;-62
2022/11/30 11:52:03;;;;;;;;;;;;;;;;;;5022201;28;19917;-65
2022/11/30 11:54:29;;;;;;;;;;;;;;;;;;5022172;28;20346;-62
2022/11/30 11:56:55;;;;;;;;;;;;;;;;;;5006275;28;19913;-64
2022/11/30 11:59:21;;;;;;;;;;;;;;;;;;5026098;28;20298;-64
2022/11/30 12:01:47;;;;;;;;;;;;;;;;;;5022520;28;19921;-65
2022/11/30 12:04:13;;;;;;;;;;;;;;;;;;5024587;28;19971;-64
2022/11/30 12:06:39;;;;;;;;;;;;;;;;;;5023129;28;19921;-64
2022/11/30 12:09:05;;;;;;;;;;;;;;;;;;5026710;28;19913;-63
2022/11/30 12:11:31;;;;;;;;;;;;;;;;;;5025922;28;19913;-64
2022/11/30 12:13:56;;;;;;;;;;;;;;;;;;5022288;28;19921;-64
2022/11/30 12:16:22;;;;;;;;;;;;;;;;;;5021770;28;20031;-61
2022/11/30 12:18:48;;;;;;;;;;;;;;;;;;5016909;28;20378;-63
2022/11/30 12:21:14;;;;;;;;;;;;;;;;;;5025183;28;20406;-65
2022/11/30 12:23:40;;;;;;;;;;;;;;;;;;5022165;28;19921;-62
2022/11/30 12:26:06;;;;;;;;;;;;;;;;;;5024184;28;19917;-61
2022/11/30 12:28:32;;;;;;;;;;;;;;;;;;5026705;28;19928;-65
2022/11/30 12:30:58;;;;;;;;;;;;;;;;;;5023675;28;19945;-62
2022/11/30 12:33:24;;;;;;;;;;;;;;;;;;5023293;28;19913;-64
2022/11/30 12:35:50;;;;;;;;;;;;;;;;;;5024505;28;19963;-64
2022/11/30 12:38:16;;;;;;;;;;;;;;;;;;5026572;28;20383;-65
2022/11/30 12:40:42;;;;;;;;;;;;;;;;;;5023321;28;19918;-64
2022/11/30 12:43:08;;;;;;;;;;;;;;;;;;5023239;28;19929;-64
2022/11/30 12:45:35;;;;;;;;;;;;;;;;;;5021472;28;19953;-63
2022/11/30 12:48:00;;;;;;;;;;;;;;;;;;5023916;28;20342;-63
2022/11/30 12:50:26;;;;;;;;;;;;;;;;;;5024125;28;19917;-65
2022/11/30 12:52:53;;;;;;;;;;;;;;;;;;5024071;28;19991;-65
2022/11/30 12:55:18;;;;;;;;;;;;;;;;;;5019857;28;19921;-63
2022/11/30 12:57:44;;;;;;;;;;;;;;;;;;5025667;28;19921;-65
2022/11/30 13:00:10;;;;;;;;;;;;;;;;;;5021085;28;19928;-65
2022/11/30 13:02:36;;;;;;;;;;;;;;;;;;5026028;28;19920;-63
2022/11/30 13:05:02;;;;;;;;;;;;;;;;;;5031596;28;19917;-65
2022/11/30 13:07:28;;;;;;;;;;;;;;;;;;5027074;28;19983;-64
2022/11/30 13:09:54;;;;;;;;;;;;;;;;;;5031358;28;19913;-64
2022/11/30 13:12:21;;;;;;;;;;;;;;;;;;5029098;28;19917;-63
2022/11/30 13:14:46;;;;;;;;;;;;;;;;;;5026863;28;19916;-62
2022/11/30 13:17:12;;;;;;;;;;;;;;;;;;5027234;28;19913;-64
2022/11/30 13:19:38;;;;;;;;;;;;;;;;;;5028632;28;20334;-64
2022/11/30 13:22:04;;;;;;;;;;;;;;;;;;5029647;28;19917;-63
2022/11/30 13:24:30;;;;;;;;;;;;;;;;;;5032248;28;19975;-64
2022/11/30 13:26:56;;;;;;;;;;;;;;;;;;5028125;28;19928;-64
2022/11/30 13:29:21;;;;;;;;;;;;;;;;;;5022336;28;20298;-65
2022/11/30 13:31:47;;;;;;;;;;;;;;;;;;5027228;28;19951;-64
2022/11/30 13:34:13;;;;;;;;;;;;;;;;;;5027842;28;19952;-65
2022/11/30 13:36:39;;;;;;;;;;;;;;;;;;5033025;28;19917;-64
2022/11/30 13:39:05;;;;;;;;;;;;;;;;;;5025039;28;20309;-62
2022/11/30 13:41:31;;;;;;;;;;;;;;;;;;5023119;28;19930;-64
2022/11/30 13:43:57;;;;;;;;;;;;;;;;;;5025644;28;19963;-64
2022/11/30 13:46:23;;;;;;;;;;;;;;;;;;5025949;28;20337;-65
2022/11/30 13:48:49;;;;;;;;;;;;;;;;;;5022419;28;20015;-63
2022/11/30 13:51:14;;;;;;;;;;;;;;;;;;5028358;28;20286;-63
2022/11/30 13:53:40;;;;;;;;;;;;;;;;;;5023138;28;19909;-64
2022/11/30 13:56:06;;;;;;;;;;;;;;;;;;5027483;28;19917;-65
2022/11/30 13:58:32;;;;;;;;;;;;;;;;;;5027170;28;19920;-65
2022/11/30 14:00:58;;;;;;;;;;;;;;;;;;5023530;28;19961;-64
2022/11/30 14:03:24;;;;;;;;;;;;;;;;;;5027864;28;20835;-65
2022/11/30 14:05:50;;;;;;;;;;;;;;;;;;5030470;28;19917;-64
2022/11/30 14:08:16;;;;;;;;;;;;;;;;;;5034061;28;20757;-64
2022/11/30 14:10:42;;;;;;;;;;;;;;;;;;5022404;28;19917;-64
2022/11/30 14:13:08;;;;;;;;;;;;;;;;;;5028920;28;19963;-63
2022/11/30 14:15:34;;;;;;;;;;;;;;;;;;5026380;28;19917;-63
2022/11/30 14:18:00;;;;;;;;;;;;;;;;;;5027057;28;19917;-64
2022/11/30 14:20:25;;;;;;;;;;;;;;;;;;5029140;28;19917;-64
2022/11/30 14:22:51;;;;;;;;;;;;;;;;;;5030221;28;19921;-64
2022/11/30 14:25:17;;;;;;;;;;;;;;;;;;5028753;28;19932;-63
2022/11/30 14:27:43;;;;;;;;;;;;;;;;;;5024032;28;19915;-64
2022/11/30 14:30:09;;;;;;;;;;;;;;;;;;5023836;28;20479;-65
2022/11/30 14:32:35;;;;;;;;;;;;;;;;;;5038218;28;20000;-64
2022/11/30 14:35:01;;;;;;;;;;;;;;;;;;5025481;28;19917;-64
2022/11/30 14:37:28;;;;;;;;;;;;;;;;;;5023981;28;20462;-64
2022/11/30 14:39:57;;;;;;;;;;;;;;;;;;5027580;28;19924;-63
2022/11/30 14:42:22;;;;;;;;;;;;;;;;;;5021658;28;20004;-64
2022/11/30 14:44:49;;;;;;;;;;;;;;;;;;5028581;28;19999;-64
2022/11/30 14:47:15;;;;;;;;;;;;;;;;;;5028197;28;19917;-64
2022/11/30 14:49:41;;;;;;;;;;;;;;;;;;5027769;28;19913;-64
2022/11/30 14:52:07;;;;;;;;;;;;;;;;;;5028719;28;19963;-64
2022/11/30 14:54:33;;;;;;;;;;;;;;;;;;5031174;28;20326;-64
2022/11/30 14:56:59;;;;;;;;;;;;;;;;;;5029078;28;19935;-64
2022/11/30 14:59:25;;;;;;;;;;;;;;;;;;5013843;28;20383;-64
2022/11/30 15:01:50;;;;;;;;;;;;;;;;;;5022025;28;19917;-63
2022/11/30 15:04:16;;;;;;;;;;;;;;;;;;5028233;28;19917;-65
2022/11/30 15:06:42;;;;;;;;;;;;;;;;;;5029454;28;19920;-64
2022/11/30 15:09:09;;;;;;;;;;;;;;;;;;5030263;28;19920;-64
2022/11/30 15:11:35;;;;;;;;;;;;;;;;;;5030325;28;20282;-64
2022/11/30 15:14:00;;;;;;;;;;;;;;;;;;5027149;28;19913;-63
2022/11/30 15:16:26;;;;;;;;;;;;;;;;;;5023677;28;19921;-61
2022/11/30 15:18:52;;;;;;;;;;;;;;;;;;5023093;28;19921;-64
2022/11/30 15:21:18;;;;;;;;;;;;;;;;;;5024784;28;20144;-63
2022/11/30 15:23:44;;;;;;;;;;;;;;;;;;5026118;28;19914;-63
2022/11/30 15:26:10;;;;;;;;;;;;;;;;;;5021668;28;19913;-61
2022/11/30 15:28:36;;;;;;;;;;;;;;;;;;5023506;28;19920;-63
2022/11/30 15:31:02;;;;;;;;;;;;;;;;;;5020672;28;19924;-63
2022/11/30 15:33:28;;;;;;;;;;;;;;;;;;5021608;28;20371;-64
2022/11/30 15:35:54;;;;;;;;;;;;;;;;;;5023361;28;19968;-64
2022/11/30 15:38:20;;;;;;;;;;;;;;;;;;5023025;28;19983;-64
2022/11/30 15:40:46;;;;;;;;;;;;;;;;;;5025405;28;20404;-64
2022/11/30 15:43:12;;;;;;;;;;;;;;;;;;5025904;28;20092;-64
2022/11/30 15:45:40;;;;;;;;;;;;;;;;;;5044839;22;19933;-56
2022/11/30 15:48:05;;;;;;;;;;;;;;;;;;5042809;28;19917;-56
2022/11/30 15:50:31;;;;;;;;;;;;;;;;;;5043699;28;20405;-57
2022/11/30 15:52:57;;;;;;;;;;;;;;;;;;5041232;28;19943;-56
2022/11/30 15:55:23;;;;;;;;;;;;;;;;;;5030688;28;19920;-57
2022/11/30 15:57:49;;;;;;;;;;;;;;;;;;5035024;28;20005;-57
2022/11/30 16:00:15;;;;;;;;;;;;;;;;;;5031029;28;20787;-57
2022/11/30 16:02:40;;;;;;;;;;;;;;;;;;5023824;28;19928;-53
2022/11/30 16:05:06;;;;;;;;;;;;;;;;;;5030909;28;19917;-53
2022/11/30 16:07:34;;;;;;;;;;;;;;;;;;5029909;28;22366;-54
2022/11/30 16:10:00;;;;;;;;;;;;;;;;;;5024751;28;19920;-56
2022/11/30 16:12:26;;;;;;;;;;;;;;;;;;5021541;28;20385;-57
2022/11/30 16:14:52;;;;;;;;;;;;;;;;;;5021958;28;19983;-57
2022/11/30 16:17:18;;;;;;;;;;;;;;;;;;5024650;28;19917;-56
2022/11/30 16:19:44;;;;;;;;;;;;;;;;;;5019847;28;20319;-57
2022/11/30 16:22:09;;;;;;;;;;;;;;;;;;5024809;28;19932;-58